Pagina principală
METAR-TAF:

METAR-TAF

Aeroporturi :

Bella Coola, Columbia Britanică, Canada

Latitudine: 52-23N, longitudine: 126-35W, elevație: 35 m

Observații meteo curente

Raportul a fost făcut în urmă cu 1 oră și 40 de minute, la 01:00 UTC
Vânt 6 kt de la Vest/Nord-vest, variabil între Vest și Nord/Nord-vest
Temperatură 11°C
Umiditate 87%
Presiune 1012 hPa
Vizibilitate: 12.9 km
Nori împrăștiați la o înălțime de 2300 picior
Total acoperit la o înălțime de 6500 picior
ploaie slabă

METAR: CYBD 270100Z 29006KT 260V330 8SM -RA SCT023 OVC065 11/09 A2989 RMK SC3SC5 LAST STFD OBS/NXT 271300Z/ SLP126

Ora: 19:40 (02:40 UTC)


TAF: lipsă

Observații și prognoze meteo pentru peste 4.000 de aeroporturi (rapoarte METAR și TAF).

Stațiile disponibile sunt reprezentate pe hartă prin puncte galbene și roșii.

Țineți indicatorul mouse-ului pe punctul dorit pentru a vedea denumirea stației.

Apoi, faceți clic pentru a vedea observațiile și prognozele meteorologice.

Pentru a schimba harta: Pentru mărire, faceți clic pe butoanele verzi cu cruce neagră; pentru micșorare, pe butonul verde cu o liniuță; pentru hărți învecinate, pe săgețile verzi.


METAR-TAF: